createdAt,value
2019-03-31T00:01:17.454Z,37.42
2019-03-31T00:02:53.021Z,34.67
2019-03-31T00:04:28.960Z,39.27
2019-03-31T00:06:04.544Z,39.58
2019-03-31T00:07:40.121Z,38.30
2019-03-31T00:09:15.770Z,39.13
2019-03-31T00:10:51.711Z,36.42
2019-03-31T00:12:27.302Z,36.63
2019-03-31T00:14:03.146Z,35.65
2019-03-31T00:15:40.001Z,37.15
2019-03-31T00:17:15.836Z,36.45
2019-03-31T00:18:51.641Z,36.50
2019-03-31T00:20:27.228Z,35.08
2019-03-31T00:22:02.797Z,36.33
2019-03-31T00:23:38.743Z,31.37
2019-03-31T00:25:14.735Z,32.75
2019-03-31T00:26:50.306Z,36.98
2019-03-31T00:28:25.975Z,37.50
2019-03-31T00:30:01.659Z,35.38
2019-03-31T00:31:37.541Z,32.70
2019-03-31T00:33:12.501Z,34.35
2019-03-31T00:34:47.650Z,36.53
2019-03-31T00:36:22.653Z,33.98
2019-03-31T00:37:57.861Z,35.10
2019-03-31T00:39:32.817Z,35.68
2019-03-31T00:41:07.712Z,34.30
2019-03-31T00:42:42.693Z,32.42
2019-03-31T00:44:17.576Z,34.05
2019-03-31T00:45:52.526Z,31.77
2019-03-31T00:47:27.829Z,35.88
2019-03-31T00:49:03.665Z,33.40
2019-03-31T00:50:39.503Z,30.55
2019-03-31T00:52:15.068Z,34.88
2019-03-31T00:53:51.149Z,32.45
2019-03-31T00:55:27.086Z,29.85
2019-03-31T00:57:02.917Z,31.50
2019-03-31T00:58:38.491Z,36.30
2019-03-31T01:00:36.176Z,37.23
2019-03-31T01:02:17.149Z,35.00
2019-03-31T01:03:53.241Z,38.08
2019-03-31T01:05:29.062Z,33.08
2019-03-31T01:07:04.854Z,32.55
2019-03-31T01:08:40.421Z,33.02
2019-03-31T01:10:16.436Z,35.45
2019-03-31T01:11:51.773Z,35.17
2019-03-31T01:13:27.142Z,33.48
2019-03-31T01:15:03.193Z,29.50
2019-03-31T01:16:38.782Z,32.15
2019-03-31T01:18:14.137Z,31.55
2019-03-31T01:19:49.305Z,39.40
2019-03-31T01:21:24.781Z,34.30
2019-03-31T01:22:59.862Z,33.65
2019-03-31T01:24:35.329Z,36.73
2019-03-31T01:26:10.796Z,40.67
2019-03-31T01:27:45.941Z,42.03
2019-03-31T01:29:22.041Z,33.78
2019-03-31T01:30:56.992Z,35.55
2019-03-31T01:32:32.020Z,41.98
2019-03-31T01:34:06.901Z,32.63
2019-03-31T01:35:41.787Z,35.30
2019-03-31T01:37:19.927Z,33.78
2019-03-31T01:38:53.886Z,31.97
2019-03-31T01:40:29.028Z,37.75
2019-03-31T01:42:04.452Z,33.18
2019-03-31T01:43:39.334Z,38.28
2019-03-31T01:45:15.084Z,39.70
2019-03-31T01:46:50.328Z,35.25
2019-03-31T01:48:26.352Z,36.63
2019-03-31T01:50:01.923Z,32.08
2019-03-31T01:51:37.542Z,32.25
2019-03-31T01:53:13.118Z,29.55
2019-03-31T01:54:49.002Z,32.15
2019-03-31T01:56:24.906Z,28.60
2019-03-31T01:58:00.744Z,29.35
2019-03-31T01:59:35.945Z,33.18
2019-03-31T02:01:13.402Z,33.58
2019-03-31T02:02:48.293Z,30.05
2019-03-31T02:04:23.849Z,32.93
2019-03-31T02:05:59.080Z,32.17
2019-03-31T02:07:34.359Z,29.98
2019-03-31T02:09:09.253Z,28.35
2019-03-31T02:10:44.145Z,31.80
2019-03-31T02:12:19.138Z,36.15
2019-03-31T02:13:54.323Z,28.35
2019-03-31T02:15:29.210Z,32.20
2019-03-31T02:17:04.121Z,35.73
2019-03-31T02:18:39.013Z,33.38
2019-03-31T02:20:14.002Z,30.20
2019-03-31T02:21:48.888Z,28.38
2019-03-31T02:23:23.806Z,34.43
2019-03-31T02:24:59.007Z,34.73
2019-03-31T02:26:33.885Z,29.87
2019-03-31T02:28:08.768Z,39.70
2019-03-31T02:29:43.682Z,38.78
2019-03-31T02:31:18.940Z,38.30
2019-03-31T02:32:54.162Z,37.28
2019-03-31T02:34:29.153Z,34.65
2019-03-31T02:36:04.129Z,34.75
2019-03-31T02:37:39.036Z,35.98
2019-03-31T02:39:13.932Z,37.33
2019-03-31T02:40:49.022Z,44.10
2019-03-31T02:42:24.169Z,43.80
2019-03-31T02:43:59.959Z,43.63
2019-03-31T02:45:35.790Z,38.15
2019-03-31T02:47:11.384Z,41.92
2019-03-31T02:48:46.958Z,42.17
2019-03-31T02:50:55.447Z,43.78
2019-03-31T02:52:31.197Z,39.33
2019-03-31T02:54:07.117Z,42.75
2019-03-31T02:55:44.976Z,36.38
2019-03-31T02:57:22.787Z,36.53
2019-03-31T02:59:01.121Z,36.98
2019-03-31T03:00:37.869Z,33.55
2019-03-31T03:02:15.395Z,31.70
2019-03-31T03:03:53.204Z,36.53
2019-03-31T03:05:32.700Z,34.80
2019-03-31T03:07:10.370Z,32.98
2019-03-31T03:08:49.937Z,34.65
2019-03-31T03:10:27.853Z,32.75
2019-03-31T03:12:07.211Z,39.18
2019-03-31T03:13:45.210Z,35.08
2019-03-31T03:15:29.025Z,34.08
2019-03-31T03:17:04.672Z,32.93
2019-03-31T03:18:40.367Z,32.78
2019-03-31T03:20:16.224Z,32.17
2019-03-31T03:21:51.799Z,33.78
2019-03-31T03:23:27.378Z,33.38
2019-03-31T03:25:03.458Z,32.83
2019-03-31T03:26:39.051Z,33.23
2019-03-31T03:28:14.615Z,34.00
2019-03-31T03:29:50.223Z,32.45
2019-03-31T03:31:25.898Z,32.95
2019-03-31T03:33:14.809Z,31.70
2019-03-31T03:34:38.791Z,28.62
2019-03-31T03:36:15.763Z,27.17
2019-03-31T03:37:51.457Z,29.82
2019-03-31T03:39:26.397Z,29.55
2019-03-31T03:41:01.294Z,32.00
2019-03-31T03:42:36.615Z,29.37
2019-03-31T03:44:11.878Z,28.52
2019-03-31T03:45:46.812Z,29.27
2019-03-31T03:47:21.852Z,27.15
2019-03-31T03:48:56.828Z,28.23
2019-03-31T03:50:32.160Z,28.62
2019-03-31T03:52:07.071Z,27.45
2019-03-31T03:53:42.314Z,28.05
2019-03-31T03:55:17.398Z,29.05
2019-03-31T03:56:52.283Z,29.37
2019-03-31T03:58:27.245Z,27.77
2019-03-31T04:00:02.389Z,29.72
2019-03-31T04:01:37.281Z,29.40
2019-03-31T04:03:29.137Z,29.45
2019-03-31T04:04:48.818Z,26.52
2019-03-31T04:06:24.664Z,28.17
2019-03-31T04:08:00.609Z,27.65
2019-03-31T04:09:36.199Z,27.77
2019-03-31T04:11:38.131Z,28.92
2019-03-31T04:13:14.162Z,30.20
2019-03-31T04:14:49.762Z,29.37
2019-03-31T04:16:26.031Z,27.40
2019-03-31T04:18:01.645Z,31.33
2019-03-31T04:19:37.481Z,30.35
2019-03-31T04:21:14.355Z,30.62
2019-03-31T04:22:49.952Z,30.97
2019-03-31T04:24:25.888Z,31.60
2019-03-31T04:26:01.466Z,36.53
2019-03-31T04:27:37.328Z,30.75
2019-03-31T04:29:12.937Z,31.85
2019-03-31T04:30:48.517Z,30.43
2019-03-31T04:32:24.141Z,31.55
2019-03-31T04:33:59.741Z,32.95
2019-03-31T04:35:35.347Z,30.43
2019-03-31T04:37:10.935Z,28.50
2019-03-31T04:38:47.073Z,32.93
2019-03-31T04:40:22.669Z,33.42
2019-03-31T04:41:58.256Z,31.73
2019-03-31T04:43:33.923Z,32.53
2019-03-31T04:45:09.768Z,32.63
2019-03-31T04:46:45.371Z,31.93
2019-03-31T04:48:20.985Z,27.95
2019-03-31T04:49:56.812Z,26.87
2019-03-31T04:51:32.381Z,28.70
2019-03-31T04:53:07.970Z,29.87
2019-03-31T04:54:43.553Z,29.92
2019-03-31T04:56:19.145Z,32.13
2019-03-31T04:57:54.718Z,32.50
2019-03-31T04:59:30.631Z,31.93
2019-03-31T05:01:06.686Z,34.53
2019-03-31T05:02:42.585Z,29.98
2019-03-31T05:04:18.161Z,32.50
2019-03-31T05:05:54.335Z,31.93
2019-03-31T05:07:31.927Z,33.05
2019-03-31T05:09:08.187Z,30.95
2019-03-31T05:10:44.177Z,28.00
2019-03-31T05:12:20.655Z,30.45
2019-03-31T05:13:56.593Z,27.42
2019-03-31T05:15:32.477Z,32.13
2019-03-31T05:17:08.735Z,26.85
2019-03-31T05:18:44.342Z,27.75
2019-03-31T05:20:19.941Z,28.25
2019-03-31T05:21:55.520Z,26.85
2019-03-31T05:23:31.090Z,27.02
2019-03-31T05:25:06.884Z,28.85
2019-03-31T05:26:42.459Z,26.20
2019-03-31T05:28:18.073Z,25.30
2019-03-31T05:29:54.079Z,25.72
2019-03-31T05:31:29.657Z,26.82
2019-03-31T05:33:05.680Z,26.23
2019-03-31T05:34:41.307Z,23.75
2019-03-31T05:36:16.888Z,24.35
2019-03-31T05:37:52.495Z,24.25
2019-03-31T05:39:27.452Z,21.80
2019-03-31T05:41:02.352Z,21.77
2019-03-31T05:42:37.252Z,22.15
2019-03-31T05:44:12.182Z,21.55
2019-03-31T05:45:47.089Z,21.73
2019-03-31T05:47:22.977Z,18.05
2019-03-31T05:48:58.578Z,21.73
2019-03-31T05:50:33.601Z,21.65
2019-03-31T05:52:08.510Z,19.87
2019-03-31T05:53:43.414Z,20.33
2019-03-31T05:55:18.942Z,22.17
2019-03-31T05:56:54.659Z,21.57
2019-03-31T05:58:30.249Z,21.47
2019-03-31T06:00:06.554Z,19.83
2019-03-31T06:01:42.423Z,20.63
2019-03-31T06:03:18.474Z,23.10
2019-03-31T06:04:54.657Z,20.67
2019-03-31T06:06:31.599Z,23.50
2019-03-31T06:08:07.654Z,21.53
2019-03-31T06:09:43.248Z,25.33
2019-03-31T06:11:18.826Z,24.67
2019-03-31T06:12:54.430Z,26.93
2019-03-31T06:14:30.326Z,22.73
2019-03-31T06:16:05.986Z,22.33
2019-03-31T06:17:42.028Z,23.17
2019-03-31T06:19:17.866Z,23.00
2019-03-31T06:20:53.954Z,22.43
2019-03-31T06:22:29.818Z,22.63
2019-03-31T06:24:06.027Z,21.77
2019-03-31T06:25:42.106Z,23.40
2019-03-31T06:27:17.685Z,19.57
2019-03-31T06:28:53.533Z,23.67
2019-03-31T06:30:29.179Z,22.83
2019-03-31T06:32:04.776Z,25.20
2019-03-31T06:33:40.588Z,23.20
2019-03-31T06:35:16.288Z,22.60
2019-03-31T06:36:52.183Z,23.67
2019-03-31T06:38:28.011Z,26.07
2019-03-31T06:40:03.664Z,28.03
2019-03-31T06:41:39.351Z,27.63
2019-03-31T06:43:15.189Z,26.83
2019-03-31T06:44:50.767Z,26.87
2019-03-31T06:46:26.643Z,24.50
2019-03-31T06:48:02.255Z,25.93
2019-03-31T06:49:37.847Z,26.07
2019-03-31T06:51:16.944Z,26.60
2019-03-31T06:52:51.337Z,25.63
2019-03-31T06:54:27.178Z,25.83
2019-03-31T06:56:03.003Z,27.57
2019-03-31T06:57:38.869Z,26.70
2019-03-31T06:59:14.715Z,27.90
2019-03-31T07:00:50.327Z,28.13
2019-03-31T07:02:25.877Z,32.77
2019-03-31T07:04:01.493Z,29.87
2019-03-31T07:05:37.089Z,29.87
2019-03-31T07:07:12.925Z,29.80
2019-03-31T07:08:48.505Z,31.03
2019-03-31T07:10:24.408Z,30.27
2019-03-31T07:12:00.656Z,30.30
2019-03-31T07:13:36.264Z,29.77
2019-03-31T07:15:12.421Z,29.17
2019-03-31T07:16:48.008Z,28.60
2019-03-31T07:18:23.617Z,31.03
2019-03-31T07:19:59.452Z,29.83
2019-03-31T07:21:35.348Z,31.70
2019-03-31T07:23:10.998Z,28.87
2019-03-31T07:24:46.585Z,28.47
2019-03-31T07:26:22.284Z,29.50
2019-03-31T07:27:58.071Z,26.80
2019-03-31T07:29:33.647Z,27.00
2019-03-31T07:31:09.233Z,27.67
2019-03-31T07:32:45.330Z,27.37
2019-03-31T07:34:21.156Z,25.47
2019-03-31T07:35:56.741Z,27.30
2019-03-31T07:37:46.329Z,27.50
2019-03-31T07:39:10.017Z,25.57
2019-03-31T07:40:46.220Z,25.83
2019-03-31T07:42:21.796Z,26.30
2019-03-31T07:43:57.358Z,26.67
2019-03-31T07:45:32.965Z,25.03
2019-03-31T07:47:08.551Z,25.17
2019-03-31T07:48:44.131Z,24.40
2019-03-31T07:50:20.766Z,25.90
2019-03-31T07:51:56.375Z,24.23
2019-03-31T07:53:32.188Z,24.70
2019-03-31T07:55:10.102Z,23.90
2019-03-31T07:56:45.676Z,26.23
2019-03-31T07:58:21.313Z,25.20
2019-03-31T07:59:57.132Z,23.57
2019-03-31T08:01:32.731Z,25.60
2019-03-31T08:03:08.305Z,26.23
2019-03-31T08:04:44.168Z,25.77
2019-03-31T08:06:19.756Z,25.57
2019-03-31T08:07:55.336Z,25.10
2019-03-31T08:09:30.912Z,23.70
2019-03-31T08:11:06.598Z,24.10
2019-03-31T08:12:42.415Z,22.27
2019-03-31T08:14:18.029Z,26.87
2019-03-31T08:15:53.851Z,27.67
2019-03-31T08:17:29.709Z,26.97
2019-03-31T08:19:05.281Z,26.20
2019-03-31T08:20:41.184Z,27.67
2019-03-31T08:22:17.110Z,27.47
2019-03-31T08:23:52.986Z,30.63
2019-03-31T08:25:28.821Z,35.23
2019-03-31T08:27:05.730Z,34.00
2019-03-31T08:28:41.675Z,31.97
2019-03-31T08:30:18.936Z,36.50
2019-03-31T08:31:54.778Z,32.73
2019-03-31T08:33:30.967Z,32.03
2019-03-31T08:35:07.748Z,45.20
2019-03-31T08:36:43.328Z,34.93
2019-03-31T08:38:18.943Z,41.33
2019-03-31T08:39:54.782Z,43.40
2019-03-31T08:41:30.933Z,44.00
2019-03-31T08:43:06.522Z,40.87
2019-03-31T08:44:42.333Z,43.83
2019-03-31T08:46:17.966Z,41.23
2019-03-31T08:47:53.553Z,41.13
2019-03-31T08:49:29.834Z,41.27
2019-03-31T08:51:05.887Z,41.97
2019-03-31T08:52:41.884Z,46.00
2019-03-31T08:54:17.500Z,40.57
2019-03-31T08:55:53.088Z,41.37
2019-03-31T08:57:28.764Z,40.10
2019-03-31T08:59:04.702Z,42.10
2019-03-31T09:00:47.209Z,44.40
2019-03-31T09:02:28.158Z,44.80
2019-03-31T09:04:04.018Z,45.90
2019-03-31T09:05:39.854Z,43.43
2019-03-31T09:07:15.476Z,45.27
2019-03-31T09:08:51.295Z,43.13
2019-03-31T09:10:27.126Z,37.47
2019-03-31T09:12:02.950Z,43.47
2019-03-31T09:13:38.801Z,36.53
2019-03-31T09:15:14.735Z,42.07
2019-03-31T09:16:50.314Z,37.87
2019-03-31T09:18:25.912Z,37.60
2019-03-31T09:20:01.524Z,38.43
2019-03-31T09:21:37.131Z,40.57
2019-03-31T09:23:12.708Z,38.33
2019-03-31T09:24:48.331Z,35.90
2019-03-31T09:26:24.029Z,37.10
2019-03-31T09:27:59.888Z,43.87
2019-03-31T09:29:35.453Z,36.70
2019-03-31T09:31:11.339Z,35.73
2019-03-31T09:32:47.181Z,36.23
2019-03-31T09:34:22.765Z,35.47
2019-03-31T09:35:58.637Z,34.23
2019-03-31T09:37:34.496Z,36.27
2019-03-31T09:39:10.060Z,36.87
2019-03-31T09:40:45.650Z,35.00
2019-03-31T09:42:21.235Z,34.63
2019-03-31T09:43:57.092Z,35.17
2019-03-31T09:45:32.679Z,38.33
2019-03-31T09:47:08.282Z,39.17
2019-03-31T09:48:44.141Z,39.20
2019-03-31T09:50:20.865Z,36.27
2019-03-31T09:51:56.457Z,38.43
2019-03-31T09:53:32.320Z,39.43
2019-03-31T09:55:09.169Z,38.03
2019-03-31T09:56:45.271Z,37.50
2019-03-31T09:58:21.091Z,39.67
2019-03-31T09:59:56.665Z,37.67
2019-03-31T10:01:32.278Z,37.40
2019-03-31T10:03:08.173Z,37.97
2019-03-31T10:04:43.757Z,43.33
2019-03-31T10:06:29.711Z,40.80
2019-03-31T10:07:56.755Z,38.23
2019-03-31T10:09:32.812Z,41.37
2019-03-31T10:11:08.643Z,39.20
2019-03-31T10:12:44.261Z,39.07
2019-03-31T10:14:19.888Z,45.93
2019-03-31T10:15:55.531Z,41.80
2019-03-31T10:17:31.112Z,42.63
2019-03-31T10:19:06.954Z,41.20
2019-03-31T10:20:42.692Z,41.50
2019-03-31T10:22:18.800Z,43.67
2019-03-31T10:23:54.618Z,43.63
2019-03-31T10:25:30.801Z,40.73
2019-03-31T10:27:07.090Z,43.77
2019-03-31T10:28:43.177Z,47.93
2019-03-31T10:30:31.287Z,45.43
2019-03-31T10:32:06.972Z,45.77
2019-03-31T10:33:43.024Z,42.17
2019-03-31T10:35:18.863Z,43.40
2019-03-31T10:36:54.690Z,40.87
2019-03-31T10:38:30.281Z,41.63
2019-03-31T10:40:07.953Z,39.83
2019-03-31T10:41:43.605Z,41.70
2019-03-31T10:43:19.195Z,40.73
2019-03-31T10:44:54.791Z,42.17
2019-03-31T10:46:30.486Z,41.47
2019-03-31T10:48:19.576Z,44.83
2019-03-31T10:49:44.111Z,42.53
2019-03-31T10:51:19.952Z,45.00
2019-03-31T10:52:55.825Z,46.03
2019-03-31T10:54:31.846Z,46.20
2019-03-31T10:56:07.494Z,44.23
2019-03-31T10:57:43.082Z,45.17
2019-03-31T10:59:18.987Z,48.87
2019-03-31T11:00:54.566Z,45.37
2019-03-31T11:02:30.489Z,44.27
2019-03-31T11:04:06.237Z,45.73
2019-03-31T11:05:41.834Z,41.70
2019-03-31T11:07:17.721Z,46.97
2019-03-31T11:08:53.302Z,43.50
2019-03-31T11:10:28.958Z,43.70
2019-03-31T11:12:04.645Z,42.13
2019-03-31T11:13:40.221Z,40.47
2019-03-31T11:15:15.819Z,46.60
2019-03-31T11:16:51.399Z,43.73
2019-03-31T11:18:27.453Z,43.50
2019-03-31T11:20:03.322Z,48.48
2019-03-31T11:22:00.765Z,43.03
2019-03-31T11:23:36.643Z,42.90
2019-03-31T11:25:20.674Z,52.03
2019-03-31T11:26:49.872Z,42.97
2019-03-31T11:28:25.738Z,44.63
2019-03-31T11:30:01.590Z,48.15
2019-03-31T11:31:37.695Z,46.50
2019-03-31T11:33:13.279Z,47.37
2019-03-31T11:34:48.875Z,45.03
2019-03-31T11:36:24.499Z,45.00
2019-03-31T11:38:00.093Z,43.53
2019-03-31T11:39:35.939Z,44.13
2019-03-31T11:41:11.527Z,47.70
2019-03-31T11:42:47.143Z,44.43
2019-03-31T11:44:22.922Z,49.40
2019-03-31T11:45:58.515Z,45.50
2019-03-31T11:47:34.105Z,48.43
2019-03-31T11:49:09.989Z,46.87
2019-03-31T11:50:45.662Z,44.67
2019-03-31T11:52:21.489Z,46.80
2019-03-31T11:53:57.310Z,45.50
2019-03-31T11:55:33.443Z,45.60
2019-03-31T11:57:09.377Z,48.63
2019-03-31T11:58:45.251Z,45.80
2019-03-31T12:00:21.449Z,46.47
2019-03-31T12:01:57.063Z,47.33
2019-03-31T12:03:32.657Z,43.87
2019-03-31T12:05:09.466Z,42.60
2019-03-31T12:06:45.306Z,43.53
2019-03-31T12:08:20.991Z,45.87
2019-03-31T12:09:56.807Z,44.67
2019-03-31T12:11:32.408Z,46.37
2019-03-31T12:13:07.986Z,45.67
2019-03-31T12:14:43.677Z,45.83
2019-03-31T12:16:19.264Z,47.67
2019-03-31T12:17:55.103Z,46.43
2019-03-31T12:19:30.947Z,45.53
2019-03-31T12:21:06.626Z,44.07
2019-03-31T12:22:42.213Z,46.40
2019-03-31T12:24:17.800Z,46.33
2019-03-31T12:25:53.386Z,47.47
2019-03-31T12:27:29.010Z,43.70
2019-03-31T12:29:04.714Z,47.07
2019-03-31T12:30:40.299Z,47.43
2019-03-31T12:32:15.887Z,44.83
2019-03-31T12:33:51.505Z,48.07
2019-03-31T12:35:27.147Z,46.70
2019-03-31T12:37:02.731Z,43.23
2019-03-31T12:38:38.306Z,44.70
2019-03-31T12:40:34.417Z,47.70
2019-03-31T12:42:11.543Z,49.17
2019-03-31T12:43:47.433Z,45.43
2019-03-31T12:45:23.018Z,44.80
2019-03-31T12:46:58.929Z,45.73
2019-03-31T12:48:34.513Z,45.23
2019-03-31T12:50:10.265Z,43.63
2019-03-31T12:51:45.891Z,51.30
2019-03-31T12:53:21.484Z,45.60
2019-03-31T12:54:57.063Z,46.37
2019-03-31T12:56:32.919Z,47.77
2019-03-31T12:58:08.578Z,45.80
2019-03-31T12:59:44.435Z,44.43
2019-03-31T13:01:20.284Z,48.70
2019-03-31T13:02:55.956Z,44.70
2019-03-31T13:04:31.541Z,47.40
2019-03-31T13:06:07.336Z,49.07
2019-03-31T13:07:55.663Z,47.43
2019-03-31T13:09:20.228Z,46.60
2019-03-31T13:10:55.825Z,45.73
2019-03-31T13:12:34.846Z,43.07
2019-03-31T13:14:09.411Z,41.80
2019-03-31T13:15:44.995Z,39.77
2019-03-31T13:17:20.910Z,40.23
2019-03-31T13:18:56.777Z,34.27
2019-03-31T13:20:32.937Z,36.20
2019-03-31T13:22:09.015Z,36.60
2019-03-31T13:23:45.086Z,34.57
2019-03-31T13:25:20.943Z,32.47
2019-03-31T13:26:56.783Z,36.30
2019-03-31T13:28:32.642Z,37.00
2019-03-31T13:30:08.591Z,28.27
2019-03-31T13:31:44.194Z,26.80
2019-03-31T13:33:19.776Z,27.23
2019-03-31T13:34:55.694Z,26.30
2019-03-31T13:36:31.542Z,22.17
2019-03-31T13:38:11.426Z,20.77
2019-03-31T13:39:44.545Z,23.17
2019-03-31T13:41:20.203Z,26.17
2019-03-31T13:42:56.045Z,23.93
2019-03-31T13:44:31.637Z,24.20
2019-03-31T13:46:07.355Z,24.83
2019-03-31T13:47:42.951Z,24.53
2019-03-31T13:49:18.614Z,23.63
2019-03-31T13:50:54.224Z,34.30
2019-03-31T13:52:29.813Z,27.30
2019-03-31T13:54:05.480Z,25.57
2019-03-31T13:55:41.077Z,28.33
2019-03-31T13:57:17.262Z,24.70
2019-03-31T13:58:53.697Z,27.00
2019-03-31T14:00:43.053Z,26.00
2019-03-31T14:02:18.880Z,29.73
2019-03-31T14:03:54.516Z,29.43
2019-03-31T14:05:30.272Z,29.07
2019-03-31T14:07:05.942Z,28.40
2019-03-31T14:08:41.531Z,28.50
2019-03-31T14:10:17.223Z,29.90
2019-03-31T14:11:52.825Z,29.53
2019-03-31T14:13:28.428Z,33.70
2019-03-31T14:15:18.124Z,30.77
2019-03-31T14:16:42.946Z,35.43
2019-03-31T14:18:18.534Z,35.57
2019-03-31T14:19:54.117Z,31.07
2019-03-31T14:21:29.702Z,32.23
2019-03-31T14:23:05.669Z,32.80
2019-03-31T14:24:41.281Z,31.00
2019-03-31T14:26:17.111Z,32.57
2019-03-31T14:27:52.705Z,33.23
2019-03-31T14:29:28.569Z,30.47
2019-03-31T14:31:04.444Z,31.63
2019-03-31T14:32:40.044Z,30.17
2019-03-31T14:34:15.640Z,30.80
2019-03-31T14:35:51.269Z,29.80
2019-03-31T14:37:26.869Z,28.57
2019-03-31T14:39:02.487Z,38.40
2019-03-31T14:40:38.333Z,32.63
2019-03-31T14:42:14.176Z,34.60
2019-03-31T14:43:49.763Z,34.07
2019-03-31T14:45:34.255Z,33.80
2019-03-31T14:47:10.141Z,33.97
2019-03-31T14:48:45.764Z,32.33
2019-03-31T14:50:35.264Z,38.90
2019-03-31T14:52:10.834Z,37.13
2019-03-31T14:53:46.447Z,33.97
2019-03-31T14:55:22.488Z,33.57
2019-03-31T14:56:58.077Z,33.23
2019-03-31T14:58:33.951Z,33.63
2019-03-31T15:00:14.950Z,33.23
2019-03-31T15:01:47.466Z,31.30
2019-03-31T15:03:23.331Z,35.33
2019-03-31T15:04:58.924Z,37.73
2019-03-31T15:06:34.600Z,34.00
2019-03-31T15:08:10.482Z,34.27
2019-03-31T15:09:46.068Z,31.93
2019-03-31T15:11:22.281Z,32.27
2019-03-31T15:12:58.358Z,30.53
2019-03-31T15:14:34.565Z,32.23
2019-03-31T15:16:10.156Z,33.37
2019-03-31T15:17:45.752Z,30.33
2019-03-31T15:19:21.359Z,32.17
2019-03-31T15:20:57.375Z,30.87
2019-03-31T15:22:33.208Z,31.40
2019-03-31T15:24:08.809Z,27.67
2019-03-31T15:25:44.392Z,29.20
2019-03-31T15:27:20.080Z,28.30
2019-03-31T15:28:55.907Z,29.60
2019-03-31T15:30:31.503Z,30.33
2019-03-31T15:32:07.081Z,31.13
2019-03-31T15:33:42.714Z,28.77
2019-03-31T15:35:18.292Z,30.17
2019-03-31T15:36:53.897Z,31.17
2019-03-31T15:38:29.489Z,27.23
2019-03-31T15:40:06.085Z,26.60
2019-03-31T15:41:41.660Z,29.47
2019-03-31T15:43:17.252Z,31.90
2019-03-31T15:44:52.853Z,25.83
2019-03-31T15:46:28.485Z,29.47
2019-03-31T15:48:04.277Z,30.30
2019-03-31T15:49:39.957Z,31.00
2019-03-31T15:51:15.546Z,27.40
2019-03-31T15:52:51.237Z,28.80
2019-03-31T15:54:27.108Z,28.53
2019-03-31T15:56:03.988Z,26.67
2019-03-31T15:57:39.834Z,26.50
2019-03-31T15:59:15.513Z,28.60
2019-03-31T16:00:51.257Z,30.20
2019-03-31T16:02:27.871Z,31.00
2019-03-31T16:04:03.450Z,27.93
2019-03-31T16:05:39.237Z,27.57
2019-03-31T16:07:15.091Z,28.00
2019-03-31T16:08:49.874Z,27.27
2019-03-31T16:10:24.733Z,30.63
2019-03-31T16:11:59.561Z,27.20
2019-03-31T16:13:34.675Z,27.00
2019-03-31T16:15:09.969Z,26.80
2019-03-31T16:16:44.748Z,29.07
2019-03-31T16:18:19.569Z,25.43
2019-03-31T16:19:54.343Z,26.40
2019-03-31T16:21:29.360Z,24.93
2019-03-31T16:23:04.920Z,24.73
2019-03-31T16:24:42.953Z,24.63
2019-03-31T16:26:17.977Z,23.77
2019-03-31T16:27:52.904Z,20.37
2019-03-31T16:29:27.677Z,22.80
2019-03-31T16:31:02.558Z,20.43
2019-03-31T16:32:37.340Z,20.73
2019-03-31T16:34:12.367Z,20.53
2019-03-31T16:35:47.403Z,21.27
2019-03-31T16:37:22.219Z,19.53
2019-03-31T16:39:00.174Z,21.07
2019-03-31T16:40:35.055Z,16.57
2019-03-31T16:42:10.065Z,18.33
2019-03-31T16:43:45.126Z,21.07
2019-03-31T16:45:20.001Z,21.97
2019-03-31T16:46:54.508Z,21.80
2019-03-31T16:48:28.895Z,17.03
2019-03-31T16:50:03.644Z,16.97
2019-03-31T16:51:38.365Z,17.30
2019-03-31T16:53:12.782Z,18.53
2019-03-31T16:54:47.408Z,15.60
2019-03-31T16:56:22.034Z,18.27
2019-03-31T16:57:57.021Z,17.00
2019-03-31T16:59:31.458Z,17.37
2019-03-31T17:01:05.892Z,19.53
2019-03-31T17:02:40.290Z,15.07
2019-03-31T17:04:15.081Z,13.93
2019-03-31T17:05:49.518Z,12.40
2019-03-31T17:07:24.472Z,12.67
2019-03-31T17:08:58.857Z,24.93
2019-03-31T17:10:33.657Z,14.27
2019-03-31T17:12:08.354Z,13.93
2019-03-31T17:13:42.708Z,14.53
2019-03-31T17:15:17.511Z,14.07
2019-03-31T17:16:51.874Z,12.07
2019-03-31T17:18:26.238Z,20.87
2019-03-31T17:20:00.884Z,35.03
2019-03-31T17:21:35.626Z,12.20
2019-03-31T17:23:10.313Z,10.07
2019-03-31T17:24:45.430Z,12.10
2019-03-31T17:26:20.046Z,11.10
2019-03-31T17:27:54.774Z,10.33
2019-03-31T17:29:29.681Z,10.93
2019-03-31T17:31:04.109Z,12.40
2019-03-31T17:32:38.524Z,11.10
2019-03-31T17:34:13.646Z,12.50
2019-03-31T17:35:48.255Z,9.30
2019-03-31T17:37:22.609Z,8.70
2019-03-31T17:38:58.004Z,9.30
2019-03-31T17:40:32.937Z,9.10
2019-03-31T17:42:07.826Z,9.27
2019-03-31T17:43:42.207Z,10.07
2019-03-31T17:45:17.407Z,9.87
2019-03-31T17:46:51.976Z,8.77
2019-03-31T17:48:26.573Z,10.57
2019-03-31T17:50:00.937Z,9.47
2019-03-31T17:51:35.781Z,10.20
2019-03-31T17:53:10.488Z,11.13
2019-03-31T17:54:45.237Z,9.60
2019-03-31T17:56:19.900Z,10.67
2019-03-31T17:57:54.511Z,9.17
2019-03-31T17:59:29.235Z,11.00
2019-03-31T18:01:03.728Z,8.77
2019-03-31T18:02:38.124Z,9.43
2019-03-31T18:04:12.966Z,8.17
2019-03-31T18:05:47.401Z,7.83
2019-03-31T18:07:21.765Z,7.27
2019-03-31T18:08:56.289Z,6.70
2019-03-31T18:10:30.918Z,8.77
2019-03-31T18:12:05.693Z,8.77
2019-03-31T18:13:40.056Z,9.73
2019-03-31T18:15:14.575Z,7.07
2019-03-31T18:16:49.167Z,9.07
2019-03-31T18:18:23.811Z,7.77
2019-03-31T18:19:58.428Z,8.67
2019-03-31T18:21:33.045Z,8.40
2019-03-31T18:23:07.872Z,11.27
2019-03-31T18:24:42.803Z,7.10
2019-03-31T18:26:17.544Z,8.60
2019-03-31T18:27:52.142Z,6.60
2019-03-31T18:29:26.555Z,7.83
2019-03-31T18:31:01.343Z,7.30
2019-03-31T18:32:35.932Z,8.13
2019-03-31T18:34:11.261Z,7.50
2019-03-31T18:35:45.642Z,8.00
2019-03-31T18:37:20.113Z,6.97
2019-03-31T18:38:54.557Z,7.10
2019-03-31T18:40:35.400Z,5.87
2019-03-31T18:42:05.394Z,7.50
2019-03-31T18:43:50.567Z,7.13
2019-03-31T18:45:15.841Z,6.40
2019-03-31T18:46:50.525Z,7.27
2019-03-31T18:48:24.885Z,6.47
2019-03-31T18:49:59.334Z,5.63
2019-03-31T18:51:33.781Z,5.40
2019-03-31T18:53:09.998Z,6.53
2019-03-31T18:55:11.830Z,9.35
2019-03-31T18:56:51.183Z,6.27
2019-03-31T18:58:36.440Z,5.33
2019-03-31T19:00:29.682Z,4.23
2019-03-31T19:02:38.597Z,6.60
2019-03-31T19:04:36.268Z,5.22
2019-03-31T19:06:32.771Z,5.58
2019-03-31T19:08:22.472Z,6.05
2019-03-31T19:10:24.825Z,6.15
2019-03-31T19:12:17.639Z,5.90
2019-03-31T19:14:11.954Z,5.62
2019-03-31T19:16:05.701Z,6.72
2019-03-31T19:17:52.483Z,7.60
2019-03-31T19:19:34.165Z,6.45
2019-03-31T19:21:14.590Z,6.12
2019-03-31T19:23:11.954Z,6.42
2019-03-31T19:25:08.466Z,8.13
2019-03-31T19:27:11.454Z,7.22
2019-03-31T19:29:08.493Z,7.87
2019-03-31T19:30:59.614Z,10.00
2019-03-31T19:32:50.503Z,7.53
2019-03-31T19:34:46.671Z,8.13
2019-03-31T19:36:38.413Z,9.65
2019-03-31T19:38:26.323Z,9.90
2019-03-31T19:40:08.915Z,8.80
2019-03-31T19:41:59.990Z,11.00
2019-03-31T19:43:44.588Z,9.15
2019-03-31T19:47:31.755Z,10.32
2019-03-31T19:49:14.569Z,11.03
2019-03-31T19:51:17.146Z,15.70
2019-03-31T19:53:03.724Z,11.10
2019-03-31T19:54:45.422Z,12.43
2019-03-31T19:56:37.964Z,13.85
2019-03-31T19:58:31.757Z,13.70
2019-03-31T20:00:26.155Z,13.25
2019-03-31T20:02:18.486Z,12.45
2019-03-31T20:04:01.977Z,14.33
2019-03-31T20:05:56.249Z,10.98
2019-03-31T20:07:56.286Z,14.75
2019-03-31T20:09:55.965Z,12.60
2019-03-31T20:11:46.457Z,12.03
2019-03-31T20:13:31.693Z,11.00
2019-03-31T20:15:23.961Z,10.93
2019-03-31T20:17:32.994Z,12.43
2019-03-31T20:19:34.340Z,11.03
2019-03-31T20:21:14.573Z,12.03
2019-03-31T20:23:00.671Z,15.78
2019-03-31T20:25:00.275Z,15.43
2019-03-31T20:26:55.476Z,13.53
2019-03-31T20:28:48.227Z,15.03
2019-03-31T20:30:40.685Z,15.15
2019-03-31T20:32:33.194Z,12.07
2019-03-31T20:34:12.624Z,12.37
2019-03-31T20:36:03.455Z,12.07
2019-03-31T20:37:52.997Z,12.35
2019-03-31T20:39:56.027Z,14.38
2019-03-31T20:41:29.948Z,12.70
2019-03-31T20:43:26.432Z,12.95
2019-03-31T20:45:00.804Z,16.17
2019-03-31T20:46:35.275Z,13.55
2019-03-31T20:48:09.644Z,14.18
2019-03-31T20:49:44.106Z,13.78
2019-03-31T20:51:18.461Z,13.35
2019-03-31T20:52:52.869Z,12.75
2019-03-31T20:54:27.216Z,15.70
2019-03-31T20:56:01.913Z,14.00